ATL weather

Hartsfield Jackson Atlanta International Airport
Atlanta, Georgia, United States

Public forecast

Using degrees Fahrenheit for public forecast. Weather courtesy of forecast.io.

METAR (pilot weather report)

Retrieved 2017/04/23 06:52 UTC (53 minutes ago):

KATL 230652Z 11006KT 10SM SCT055 SCT070 BKN150 BKN180 BKN250 18/14 A2984

TAF (pilot weather forecast)

Retrieved 2017/04/23 06:27 UTC (1 hour ago):

TAF KATL 230521Z 2306/2412 22005KT P6SM VCSH BKN045 FM231000 21004KT 6SM SHRA BKN015 TEMPO 2315/2319 3SM TSRA BR BKN008CB FM231900 28008KT 3SM -SHRA BR BKN012 FM232300 30007KT P6SM VCSH BKN012 FM240300 30007KT 5SM -DZ BR OVC008